.
WxDataArchive / Data Records for 2007-10-19
2007-10-18 October 2007 2007-10-20

Data Records for Friday, 19 October 2007

Time	Temp	Chill	HIndex	Humid	Dewpt	 Wind 	HiWind	WindDir	Rain 	Barom 
-----	----	-----	------	-----	-----	------	------	-------	-----	----- 
00:00	72.1	72.1	72.1	71	62.2	1	5	248	0.00	29.301 
00:05	72.1	72.1	72.1	71	62.2	2	5	270	0.00	29.295 
00:10	72.3	72.3	72.3	70	62.0	2	7	68	0.00	29.294 
00:15	72.3	72.3	72.3	70	62.0	3	13	270	0.00	29.300 
00:20	72.3	72.3	72.3	69	61.5	3	10	90	0.00	29.295 
00:25	72.3	72.3	72.3	68	61.1	3	9	292	0.00	29.289 
00:30	72.3	72.3	72.3	68	61.1	2	7	68	0.00	29.294 
00:35	72.3	72.3	72.3	67	60.7	2	9	90	0.00	29.295 
00:40	72.5	72.5	72.5	66	60.5	2	7	292	0.00	29.296 
00:45	72.5	72.5	72.5	65	60.0	3	10	270	0.00	29.300 
00:50	72.7	72.7	72.7	64	59.8	2	6	68	0.00	29.302 
00:55	72.7	72.7	72.7	64	59.8	3	10	90	0.00	29.298 
01:00	72.7	72.7	72.7	64	59.8	2	7	248	0.00	29.304 
01:05	72.1	72.1	72.1	61	57.9	5	12	270	0.00	29.324 
01:10	70.8	70.8	70.8	62	57.1	4	11	270	0.00	29.323 
01:15	69.8	69.8	69.8	62	56.2	4	14	270	0.00	29.328 
01:20	69.1	69.1	69.1	63	56.0	5	11	270	0.00	29.341 
01:25	68.6	68.6	68.6	64	55.9	4	12	270	0.00	29.344 
01:30	68.1	68.1	68.1	65	55.9	4	11	248	0.00	29.343 
01:35	67.3	67.3	67.3	67	56.0	3	6	270	0.00	29.335 
01:40	66.0	66.0	66.0	72	56.7	3	6	248	0.00	29.344 
01:45	65.0	65.0	65.0	76	57.2	3	7	270	0.00	29.339 
01:50	64.3	64.3	64.3	78	57.3	1	3	248	0.00	29.334 
01:55	63.9	63.9	63.9	79	57.3	1	6	248	0.00	29.339 
02:00	63.5	63.5	63.5	80	57.2	1	4	248	0.00	29.337 
02:05	63.4	63.4	63.4	81	57.5	0	3	248	0.00	29.344 
02:10	63.4	63.4	63.4	82	57.8	1	4	225	0.00	29.346 
02:15	63.2	63.2	63.2	82	57.6	0	3	248	0.00	29.349 
02:20	63.2	63.2	63.2	82	57.6	1	2	248	0.00	29.349 
02:25	63.4	63.4	63.4	82	57.8	1	4	248	0.00	29.348 
02:30	63.4	63.4	63.4	83	58.1	1	5	248	0.00	29.349 
02:35	63.5	63.5	63.5	83	58.2	1	5	248	0.00	29.352 
02:40	63.7	63.7	63.7	83	58.4	1	6	248	0.00	29.347 
02:45	63.9	63.9	63.9	84	59.0	2	5	248	0.00	29.347 
02:50	63.9	63.9	63.9	84	59.0	1	5	248	0.00	29.342 
02:55	64.0	64.0	64.0	84	59.1	1	4	248	0.00	29.347 
03:00	64.0	64.0	64.0	83	58.7	2	6	248	0.00	29.345 
03:05	64.2	64.2	64.2	83	58.9	2	5	248	0.00	29.341 
03:10	64.2	64.2	64.2	83	58.9	2	7	248	0.00	29.344 
03:15	64.2	64.2	64.2	83	58.9	1	6	248	0.00	29.339 
03:20	64.2	64.2	64.2	83	58.9	1	6	225	0.00	29.341 
03:25	64.3	64.3	64.3	82	58.7	2	4	248	0.00	29.337 
03:30	64.3	64.3	64.3	82	58.7	2	5	225	0.00	29.336 
03:35	64.3	64.3	64.3	81	58.3	1	5	248	0.00	29.335 
03:40	64.3	64.3	64.3	81	58.3	1	7	225	0.00	29.337 
03:45	64.3	64.3	64.3	80	58.0	2	5	248	0.00	29.338 
03:50	64.3	64.3	64.3	79	57.6	1	4	248	0.00	29.342 
03:55	64.3	64.3	64.3	79	57.6	1	4	248	0.00	29.339 
04:00	64.2	64.2	64.2	79	57.5	1	3	292	0.00	29.339 
04:05	64.0	64.0	64.0	78	57.0	1	5	248	0.00	29.337 
04:10	64.0	64.0	64.0	77	56.6	2	7	248	0.00	29.333 
04:15	64.0	64.0	64.0	77	56.6	2	7	270	0.00	29.332 
04:20	63.9	63.9	63.9	76	56.2	2	5	248	0.00	29.332 
04:25	63.5	63.5	63.5	77	56.2	1	5	270	0.00	29.331 
04:30	63.4	63.4	63.4	77	56.1	2	5	248	0.00	29.326 
04:35	63.2	63.2	63.2	77	55.9	1	4	248	0.00	29.326 
04:40	63.1	63.1	63.1	77	55.8	2	5	270	0.00	29.330 
04:45	62.9	62.9	62.9	77	55.6	2	9	248	0.00	29.331 
04:50	62.6	62.6	62.6	75	54.6	2	4	248	0.00	29.328 
04:55	62.4	62.4	62.4	74	54.0	2	4	270	0.00	29.333 
05:00	62.1	62.1	62.1	71	52.6	3	6	270	0.00	29.332 
05:05	62.0	62.0	62.0	71	52.5	2	4	270	0.00	29.335 
05:10	61.8	61.8	61.8	70	51.9	2	5	270	0.00	29.336 
05:15	61.5	61.5	61.5	71	52.0	2	4	248	0.00	29.336 
05:20	61.2	61.2	61.2	71	51.7	1	4	248	0.00	29.337 
05:25	60.9	60.9	60.9	72	51.8	2	5	248	0.00	29.339 
05:30	60.9	60.9	60.9	72	51.8	2	5	248	0.00	29.339 
05:35	60.5	60.5	60.5	72	51.4	1	4	248	0.00	29.339 
05:40	60.4	60.4	60.4	73	51.7	1	2	270	0.00	29.343 
05:45	60.2	60.2	60.2	74	51.9	1	5	248	0.00	29.348 
05:50	60.1	60.1	60.1	74	51.8	1	4	248	0.00	29.351 
05:55	59.9	59.9	59.9	75	52.0	1	7	248	0.00	29.353 
06:00	59.8	59.8	59.8	76	52.2	1	5	248	0.00	29.354 
06:05	59.8	59.8	59.8	76	52.2	2	5	248	0.00	29.354 
06:10	59.6	59.6	59.6	76	52.0	1	4	248	0.00	29.354 
06:15	59.5	59.5	59.5	77	52.3	1	4	248	0.00	29.355 
06:20	59.3	59.3	59.3	76	51.7	1	3	248	0.00	29.356 
06:25	59.3	59.3	59.3	76	51.7	1	3	270	0.00	29.355 
06:30	59.2	59.2	59.2	76	51.6	1	4	248	0.00	29.356 
06:35	59.2	59.2	59.2	76	51.6	1	4	248	0.00	29.356 
06:40	59.0	59.0	59.0	76	51.4	1	4	248	0.00	29.358 
06:45	58.9	58.9	58.9	77	51.7	0	2	225	0.00	29.356 
06:50	58.9	58.9	58.9	76	51.3	2	6	248	0.00	29.357 
06:55	58.9	58.9	58.9	76	51.3	2	7	248	0.00	29.357 
07:00	59.0	59.0	59.0	75	51.1	2	6	248	0.00	29.360 
07:05	58.9	58.9	58.9	76	51.3	1	3	248	0.00	29.360 
07:10	58.9	58.9	58.9	76	51.3	1	4	248	0.00	29.360 
07:15	58.7	58.7	58.7	76	51.2	1	4	248	0.00	29.365 
07:20	58.7	58.7	58.7	76	51.2	2	9	270	0.00	29.367 
07:25	58.7	58.7	58.7	76	51.2	1	5	270	0.00	29.369 
07:30	58.7	58.7	58.7	76	51.2	2	5	270	0.00	29.370 
07:35	58.7	58.7	58.7	76	51.2	1	4	248	0.00	29.370 
07:40	58.7	58.7	58.7	76	51.2	2	7	248	0.00	29.371 
07:45	58.7	58.7	58.7	75	50.8	2	6	248	0.00	29.372 
07:50	59.0	59.0	59.0	75	51.1	2	5	248	0.00	29.372 
07:55	59.0	59.0	59.0	75	51.1	1	4	248	0.00	29.372 
08:00	59.0	59.0	59.0	74	50.7	2	6	248	0.00	29.373 
08:05	59.0	59.0	59.0	74	50.7	1	4	248	0.00	29.373 
08:10	59.0	59.0	59.0	74	50.7	2	6	248	0.00	29.375 
08:15	59.0	59.0	59.0	74	50.7	3	6	270	0.00	29.382 
08:20	59.0	59.0	59.0	73	50.4	3	7	248	0.00	29.384 
08:25	59.0	59.0	59.0	74	50.7	2	4	248	0.00	29.385 
08:30	59.0	59.0	59.0	74	50.7	1	6	248	0.00	29.385 
08:35	59.0	59.0	59.0	73	50.4	3	9	270	0.00	29.387 
08:40	59.0	59.0	59.0	73	50.4	2	7	270	0.00	29.388 
08:45	59.2	59.2	59.2	73	50.5	2	9	248	0.00	29.393 
08:50	59.2	59.2	59.2	73	50.5	2	5	292	0.00	29.392 
08:55	59.2	59.2	59.2	73	50.5	2	7	270	0.00	29.393 
09:00	59.3	59.3	59.3	73	50.6	2	6	270	0.00	29.392 
09:05	59.6	59.6	59.6	73	50.9	3	9	270	0.00	29.391 
09:10	60.1	60.1	60.1	72	51.0	2	6	270	0.00	29.388 
09:15	60.1	60.1	60.1	71	50.7	2	7	292	0.00	29.390 
09:20	59.9	59.9	59.9	72	50.8	2	7	248	0.00	29.392 
09:25	59.6	59.6	59.6	70	49.8	4	12	270	0.00	29.399 
09:30	59.5	59.5	59.5	69	49.3	4	10	270	0.00	29.398 
09:35	59.3	59.3	59.3	68	48.7	4	7	248	0.00	29.401 
09:40	59.2	59.2	59.2	69	49.0	4	10	270	0.00	29.401 
09:45	59.0	59.0	59.0	69	48.8	3	9	270	0.00	29.403 
09:50	58.7	58.7	58.7	69	48.6	3	11	248	0.00	29.403 
09:55	58.6	58.6	58.6	69	48.5	4	10	270	0.00	29.400 
10:00	59.2	59.2	59.2	69	49.0	3	10	248	0.00	29.402 
10:05	59.8	59.8	59.8	66	48.4	4	9	248	0.00	29.402 
10:10	59.5	59.5	59.5	66	48.1	4	10	270	0.00	29.404 
10:15	59.0	59.0	59.0	68	48.5	4	11	270	0.00	29.408 
10:20	58.7	58.7	58.7	69	48.6	4	11	270	0.00	29.408 
10:25	58.6	58.6	58.6	69	48.5	4	9	270	0.00	29.416 
10:30	58.4	58.4	58.4	69	48.3	3	10	248	0.00	29.416 
10:35	58.3	58.3	58.3	69	48.2	4	9	270	0.00	29.417 
10:40	58.1	58.1	58.1	70	48.4	4	11	270	0.00	29.417 
10:45	58.0	58.0	58.0	70	48.3	4	12	248	0.00	29.414 
10:50	58.0	58.0	58.0	71	48.6	4	11	248	0.00	29.414 
10:55	58.0	58.0	58.0	71	48.6	3	10	248	0.00	29.419 
11:00	58.1	58.1	58.1	72	49.1	3	7	270	0.00	29.419 
11:05	58.0	58.0	58.0	71	48.6	5	14	248	0.00	29.419 
11:10	58.0	58.0	58.0	72	49.0	4	11	270	0.00	29.422 
11:15	58.0	58.0	58.0	73	49.4	3	10	248	0.00	29.424 
11:20	58.1	58.1	58.1	73	49.5	3	6	270	0.00	29.421 
11:25	58.4	58.4	58.4	73	49.8	2	10	248	0.00	29.421 
11:30	58.3	58.3	58.3	73	49.7	2	6	248	0.00	29.422 
11:35	58.1	58.1	58.1	73	49.5	3	10	248	0.00	29.422 
11:40	58.0	58.0	58.0	74	49.8	3	10	248	0.00	29.424 
11:45	57.8	57.8	57.8	74	49.6	3	9	248	0.00	29.428 
11:50	58.0	58.0	58.0	74	49.8	3	10	248	0.00	29.429 
11:55	58.0	58.0	58.0	74	49.8	4	8	270	0.00	29.430 
12:00	58.1	58.1	58.1	73	49.5	4	10	270	0.00	29.433 
12:05	58.1	58.1	58.1	73	49.5	3	6	270	0.00	29.435 
12:10	58.1	58.1	58.1	75	50.2	2	6	270	0.00	29.434 
12:15	58.1	58.1	58.1	75	50.2	2	5	248	0.00	29.434 
12:20	58.1	58.1	58.1	75	50.2	3	5	248	0.00	29.433 
12:25	57.8	57.8	57.8	77	50.6	3	7	270	0.00	29.435 
12:30	57.2	57.2	57.2	80	51.1	4	10	270	0.00	29.435 
12:35	57.0	57.0	57.0	81	51.2	3	7	270	0.00	29.434 
12:40	57.5	57.5	57.5	81	51.7	2	6	270	0.00	29.434 
12:45	58.0	58.0	58.0	80	51.9	1	4	248	0.00	29.433 
12:50	58.0	58.0	58.0	78	51.2	2	6	248	0.00	29.434 
12:55	58.0	58.0	58.0	77	50.8	3	7	270	0.00	29.432 
13:00	58.0	58.0	58.0	73	49.4	4	12	248	0.00	29.427 
13:05	58.3	58.3	58.3	72	49.3	4	10	270	0.00	29.431 
13:10	58.4	58.4	58.4	73	49.8	3	9	270	0.00	29.427 
13:15	58.6	58.6	58.6	73	50.0	2	6	270	0.00	29.427 
13:20	58.9	58.9	58.9	72	49.9	2	5	248	0.00	29.427 
13:25	58.9	58.9	58.9	72	49.9	3	10	248	0.00	29.428 
13:30	58.9	58.9	58.9	71	49.5	3	7	248	0.00	29.427 
13:35	58.9	58.9	58.9	72	49.9	3	7	248	0.00	29.427 
13:40	58.9	58.9	58.9	73	50.3	3	8	248	0.00	29.429 
13:45	58.7	58.7	58.7	72	49.7	4	12	270	0.00	29.429 
13:50	58.4	58.4	58.4	73	49.8	4	10	270	0.00	29.428 
13:55	58.4	58.4	58.4	74	50.1	2	4	270	0.00	29.431 
14:00	58.4	58.4	58.4	74	50.1	1	4	270	0.00	29.430 
14:05	58.4	58.4	58.4	73	49.8	3	9	270	0.00	29.435 
14:10	58.3	58.3	58.3	74	50.0	3	10	248	0.00	29.434 
14:15	58.1	58.1	58.1	74	49.9	3	9	248	0.00	29.440 
14:20	58.4	58.4	58.4	74	50.1	2	7	248	0.00	29.437 
14:25	58.7	58.7	58.7	73	50.1	3	7	248	0.00	29.438 
14:30	58.6	58.6	58.6	73	50.0	4	14	270	0.00	29.440 
14:35	58.6	58.6	58.6	73	50.0	3	7	270	0.00	29.441 
14:40	58.4	58.4	58.4	75	50.5	3	6	270	0.00	29.446 
14:45	57.8	57.8	57.8	78	51.0	3	7	270	0.00	29.451 
14:50	57.5	57.5	57.5	80	51.4	2	7	248	0.00	29.454 
14:55	57.3	57.3	57.3	81	51.5	2	7	270	0.00	29.457 
15:00	57.3	57.3	57.3	81	51.5	1	7	248	0.00	29.457 
15:05	57.3	57.3	57.3	80	51.2	2	5	248	0.00	29.458 
15:10	57.5	57.5	57.5	79	51.0	3	11	270	0.00	29.458 
15:15	57.6	57.6	57.6	79	51.1	2	10	270	0.00	29.458 
15:20	57.8	57.8	57.8	78	51.0	2	5	270	0.00	29.458 
15:25	58.1	58.1	58.1	77	50.9	3	8	248	0.00	29.462 
15:30	58.3	58.3	58.3	77	51.1	3	7	248	0.00	29.465 
15:35	58.3	58.3	58.3	77	51.1	3	12	270	0.00	29.467 
15:40	57.8	57.8	57.8	78	51.0	2	7	248	0.00	29.470 
15:45	57.3	57.3	57.3	81	51.5	2	8	270	0.00	29.473 
15:50	56.7	56.7	56.7	83	51.6	3	7	270	0.00	29.474 
15:55	56.5	56.5	56.5	84	51.7	2	6	270	0.00	29.475 
16:00	56.5	56.5	56.5	84	51.7	2	6	248	0.00	29.476 
16:05	56.5	56.5	56.5	84	51.7	3	7	248	0.00	29.478 
16:10	56.6	56.6	56.6	82	51.2	3	7	248	0.00	29.484 
16:15	56.6	56.6	56.6	82	51.2	2	5	270	0.00	29.489 
16:20	56.7	56.7	56.7	81	50.9	3	6	248	0.00	29.490 
16:25	56.7	56.7	56.7	80	50.6	2	9	270	0.00	29.490 
16:30	56.9	56.9	56.9	80	50.8	3	9	248	0.00	29.492 
16:35	56.9	56.9	56.9	79	50.5	3	12	248	0.00	29.492 
16:40	57.0	57.0	57.0	78	50.2	3	6	270	0.00	29.492 
16:45	57.2	57.2	57.2	77	50.1	3	10	270	0.00	29.493 
16:50	57.2	57.2	57.2	76	49.7	4	9	270	0.00	29.493 
16:55	57.3	57.3	57.3	75	49.4	3	6	248	0.00	29.495 
17:00	57.3	57.3	57.3	75	49.4	3	5	248	0.00	29.496 
17:05	57.3	57.3	57.3	75	49.4	2	7	248	0.00	29.498 
17:10	57.3	57.3	57.3	75	49.4	3	9	248	0.00	29.500 
17:15	57.2	57.2	57.2	75	49.3	3	10	248	0.00	29.504 
17:20	57.2	57.2	57.2	73	48.6	3	9	270	0.00	29.504 
17:25	57.0	57.0	57.0	72	48.1	3	10	248	0.00	29.507 
17:30	57.0	57.0	57.0	72	48.1	3	7	248	0.00	29.507 
17:35	57.0	57.0	57.0	71	47.7	3	13	248	0.00	29.508 
17:40	57.0	57.0	57.0	71	47.7	3	10	248	0.00	29.508 
17:45	57.0	57.0	57.0	70	47.3	4	13	248	0.00	29.510 
17:50	57.0	57.0	57.0	70	47.3	3	6	248	0.00	29.513 
17:55	56.9	56.9	56.9	70	47.2	3	7	248	0.00	29.516 
18:00	56.9	56.9	56.9	70	47.2	3	6	248	0.00	29.520 
18:05	56.9	56.9	56.9	70	47.2	3	6	248	0.00	29.521 
18:10	56.9	56.9	56.9	70	47.2	3	6	248	0.00	29.521 
18:15	56.9	56.9	56.9	70	47.2	2	7	270	0.00	29.524 
18:20	56.9	56.9	56.9	71	47.6	4	14	248	0.00	29.525 
18:25	56.9	56.9	56.9	71	47.6	2	7	248	0.00	29.525 
18:30	56.7	56.7	56.7	71	47.4	2	7	248	0.00	29.527 
18:35	56.7	56.7	56.7	71	47.4	2	9	248	0.00	29.533 
18:40	56.7	56.7	56.7	71	47.4	3	6	248	0.00	29.535 
18:45	56.7	56.7	56.7	71	47.4	2	5	248	0.00	29.536 
18:50	56.7	56.7	56.7	71	47.4	3	9	248	0.00	29.537 
18:55	56.7	56.7	56.7	71	47.4	2	4	248	0.00	29.541 
19:00	56.7	56.7	56.7	71	47.4	2	6	248	0.00	29.543 
19:05	56.7	56.7	56.7	72	47.8	2	7	248	0.00	29.544 
19:10	56.7	56.7	56.7	72	47.8	2	7	270	0.00	29.544 
19:15	56.7	56.7	56.7	72	47.8	3	7	248	0.00	29.544 
19:20	56.7	56.7	56.7	72	47.8	3	9	248	0.00	29.543 
19:25	56.7	56.7	56.7	72	47.8	3	11	270	0.00	29.543 
19:30	56.7	56.7	56.7	72	47.8	3	7	248	0.00	29.546 
19:35	56.7	56.7	56.7	72	47.8	2	7	248	0.00	29.547 
19:40	56.7	56.7	56.7	72	47.8	2	6	248	0.00	29.547 
19:45	56.7	56.7	56.7	71	47.4	3	6	270	0.00	29.549 
19:50	56.7	56.7	56.7	71	47.4	1	5	248	0.00	29.552 
19:55	56.7	56.7	56.7	71	47.4	2	5	270	0.00	29.551 
20:00	56.7	56.7	56.7	70	47.0	2	11	270	0.00	29.554 
20:05	56.9	56.9	56.9	69	46.8	3	7	270	0.00	29.555 
20:10	56.9	56.9	56.9	69	46.8	2	6	248	0.00	29.557 
20:15	56.9	56.9	56.9	69	46.8	3	7	248	0.00	29.558 
20:20	56.9	56.9	56.9	69	46.8	2	7	248	0.00	29.558 
20:25	56.9	56.9	56.9	69	46.8	1	7	248	0.00	29.559 
20:30	56.9	56.9	56.9	69	46.8	3	6	248	0.00	29.562 
20:35	56.9	56.9	56.9	69	46.8	2	6	248	0.00	29.564 
20:40	56.9	56.9	56.9	69	46.8	2	5	248	0.00	29.569 
20:45	56.9	56.9	56.9	69	46.8	2	5	270	0.00	29.571 
20:50	57.0	57.0	57.0	68	46.5	2	6	248	0.00	29.569 
20:55	57.0	57.0	57.0	68	46.5	1	5	225	0.00	29.571 
21:00	57.0	57.0	57.0	68	46.5	2	6	248	0.00	29.568 
21:05	57.0	57.0	57.0	68	46.5	3	6	248	0.00	29.569 
21:10	57.0	57.0	57.0	68	46.5	1	4	248	0.00	29.572 
21:15	57.0	57.0	57.0	68	46.5	2	4	248	0.00	29.573 
21:20	57.0	57.0	57.0	68	46.5	3	7	248	0.00	29.573 
21:25	57.2	57.2	57.2	68	46.7	3	5	270	0.00	29.573 
21:30	57.3	57.3	57.3	67	46.4	3	7	270	0.00	29.575 
21:35	57.2	57.2	57.2	67	46.3	3	6	248	0.00	29.576 
21:40	57.2	57.2	57.2	68	46.7	2	5	248	0.00	29.579 
21:45	57.2	57.2	57.2	67	46.3	3	7	270	0.00	29.581 
21:50	57.2	57.2	57.2	67	46.3	3	6	248	0.00	29.583 
21:55	57.2	57.2	57.2	67	46.3	2	6	248	0.00	29.586 
22:00	57.0	57.0	57.0	68	46.5	2	6	248	0.00	29.586 
22:05	56.9	56.9	56.9	68	46.4	2	5	248	0.00	29.589 
22:10	56.9	56.9	56.9	67	46.1	2	6	248	0.00	29.587 
22:15	56.9	56.9	56.9	67	46.1	2	6	270	0.00	29.589 
22:20	56.7	56.7	56.7	68	46.3	2	5	248	0.00	29.589 
22:25	56.6	56.6	56.6	67	45.8	2	8	248	0.00	29.586 
22:30	56.7	56.7	56.7	65	45.1	3	6	270	0.00	29.586 
22:35	56.7	56.7	56.7	65	45.1	2	6	270	0.00	29.588 
22:40	56.7	56.7	56.7	65	45.1	2	5	248	0.00	29.589 
22:45	56.7	56.7	56.7	65	45.1	2	5	248	0.00	29.588 
22:50	56.6	56.6	56.6	65	45.0	3	5	248	0.00	29.587 
22:55	56.5	56.5	56.5	66	45.3	2	6	248	0.00	29.586 
23:00	56.5	56.5	56.5	66	45.3	2	5	270	0.00	29.586 
23:05	56.3	56.3	56.3	67	45.5	2	5	248	0.00	29.587 
23:10	56.2	56.2	56.2	67	45.4	1	4	248	0.00	29.585 
23:15	56.2	56.2	56.2	68	45.8	1	6	270	0.00	29.587 
23:20	56.2	56.2	56.2	68	45.8	1	4	248	0.00	29.586 
23:25	56.0	56.0	56.0	68	45.6	2	5	270	0.00	29.589 
23:30	56.2	56.2	56.2	68	45.8	2	5	270	0.00	29.589 
23:35	56.2	56.2	56.2	68	45.8	1	6	248	0.00	29.589 
23:40	56.0	56.0	56.0	68	45.6	1	4	270	0.00	29.589 
23:45	56.0	56.0	56.0	67	45.2	1	5	270	0.00	29.587 
23:50	56.0	56.0	56.0	68	45.6	2	4	248	0.00	29.588 
23:55	56.0	56.0	56.0	67	45.2	2	5	270	0.00	29.588 

CoCoRaHS
IN-AL-39
A2 Web Hosting
Creative Commons License
GoDaddy
Look for:

loaded 2017-12-12 17:09:55 • last modified 2010-11-18 10:43:29
Privacy PolicyDisclaimer
• wx.awcolley.com is powered by PmWiki v.2002016 •
• all content (unless otherwise noted) © 2017 A W Colley